Terminal Aerodrome Forecast
Issued by NWS Detroit/Pontiac, MI

Home | Current Version | Previous Version | Text Only | Print | Product List | Glossary On
Versions: 1 2 3 4 5 6 7 8 9 10 11 12
000
FTUS43 KDTX 272320
TAFFNT
TAF
KFNT 272320Z 2800/2824 16005KT P6SM BKN040
     FM280900 14003KT 5SM BR SCT040 BKN100
     FM281300 15011KT 2SM -SHRA BR OVC007
     FM282000 18009KT 6SM HZ OVC012=

USA.gov is the U.S. government's official web portal to all federal, state and local government web resources and services.